Time;durP1;ratioP1;P1;durP2;ratioP2;P2;SDS_P1;SDS_P2;PMS_P1;PMS_P2;Temp;Humidity;BMP_temperature;BMP_pressure;BME280_temperature;BME280_humidity;BME280_pressure;Samples;Min_cycle;Max_cycle;Signal;HPM_P1;HPM_P2
2021/03/01 00:02:16;;;;;;;20.10;11.18;;;;;;;2.26;59.44;97845.06;5075741;28;20040;-78
2021/03/01 00:04:42;;;;;;;21.40;10.57;;;;;;;2.27;59.45;97838.94;5076322;28;20032;-78
2021/03/01 00:07:08;;;;;;;21.02;10.13;;;;;;;2.29;59.47;97843.03;5076045;28;20044;-78
2021/03/01 00:09:35;;;;;;;19.50;10.50;;;;;;;2.29;59.38;97842.19;5076510;28;20045;-78
2021/03/01 00:12:01;;;;;;;19.02;9.90;;;;;;;2.29;59.55;97849.97;5076493;28;20477;-78
2021/03/01 00:14:27;;;;;;;24.45;11.68;;;;;;;2.28;59.64;97841.38;5075859;28;20037;-78
2021/03/01 00:16:54;;;;;;;20.52;11.52;;;;;;;2.26;59.58;97845.06;5075912;28;20053;-78
2021/03/01 00:19:20;;;;;;;18.95;10.60;;;;;;;2.25;59.65;97844.25;5076052;28;20044;-78
2021/03/01 00:21:46;;;;;;;18.52;10.73;;;;;;;2.23;59.55;97844.38;5075161;28;20416;-79
2021/03/01 00:24:12;;;;;;;18.48;9.80;;;;;;;2.21;59.37;97846.28;5075673;28;20040;-79
2021/03/01 00:26:39;;;;;;;17.63;10.23;;;;;;;2.19;59.65;97840.41;5075969;28;20048;-78
2021/03/01 00:29:11;;;;;;;21.00;10.23;;;;;;;2.18;59.81;97850.88;5076277;28;20052;-78
2021/03/01 00:31:37;;;;;;;21.02;11.00;;;;;;;2.17;59.67;97846.66;5076069;28;20051;-78
2021/03/01 00:34:03;;;;;;;21.13;10.40;;;;;;;2.15;59.78;97845.97;5057152;28;20404;-78
2021/03/01 00:36:29;;;;;;;18.17;9.60;;;;;;;2.13;59.76;97851.28;5075148;28;20071;-79
2021/03/01 00:38:55;;;;;;;14.48;9.30;;;;;;;2.11;59.74;97850.59;5074686;28;20040;-78
2021/03/01 00:41:22;;;;;;;16.73;9.52;;;;;;;2.06;59.76;97847.59;5075488;28;20115;-78
2021/03/01 00:43:48;;;;;;;19.20;9.88;;;;;;;2.00;59.75;97843.75;5075529;28;20048;-79
2021/03/01 00:46:14;;;;;;;18.83;9.52;;;;;;;1.95;59.71;97848.50;5074744;28;20040;-79
2021/03/01 00:48:40;;;;;;;18.70;9.40;;;;;;;1.88;59.88;97851.72;5074334;28;20037;-78
2021/03/01 00:51:06;;;;;;;19.15;9.63;;;;;;;1.82;59.88;97848.66;5075314;28;20048;-78
2021/03/01 00:53:32;;;;;;;17.80;9.75;;;;;;;1.73;59.81;97844.28;5075597;28;20032;-78
2021/03/01 00:55:59;;;;;;;17.60;9.40;;;;;;;1.68;59.95;97843.00;5075375;28;20515;-78
2021/03/01 00:58:25;;;;;;;17.85;9.57;;;;;;;1.65;60.06;97845.88;5075885;28;20044;-78
2021/03/01 01:00:52;;;;;;;15.82;9.05;;;;;;;1.59;60.18;97840.22;5073782;28;20476;-79
2021/03/01 01:03:19;;;;;;;17.95;9.02;;;;;;;1.54;60.11;97842.41;5075614;28;20037;-78
2021/03/01 01:05:46;;;;;;;19.30;9.30;;;;;;;1.51;60.08;97847.84;5075143;28;20484;-79
2021/03/01 01:08:13;;;;;;;17.08;10.23;;;;;;;1.49;60.15;97841.97;5075004;28;20520;-78
2021/03/01 01:10:40;;;;;;;16.35;8.73;;;;;;;1.46;60.24;97843.97;5074858;28;20361;-79
2021/03/01 01:13:07;;;;;;;14.98;9.20;;;;;;;1.42;60.21;97843.41;5074997;28;20041;-78
2021/03/01 01:15:33;;;;;;;14.73;8.98;;;;;;;1.39;60.29;97843.66;5075013;28;20036;-79
2021/03/01 01:18:00;;;;;;;17.27;9.60;;;;;;;1.35;60.32;97842.28;5075278;28;20049;-78
2021/03/01 01:20:26;;;;;;;16.23;8.95;;;;;;;1.34;60.40;97848.38;5073752;28;20032;-79
2021/03/01 01:22:52;;;;;;;16.92;9.60;;;;;;;1.30;60.44;97839.22;5075030;28;20048;-78
2021/03/01 01:25:19;;;;;;;17.95;9.82;;;;;;;1.26;60.46;97841.25;5074986;28;20491;-78
2021/03/01 01:27:45;;;;;;;17.17;10.05;;;;;;;1.23;60.52;97833.75;5075070;28;20036;-79
2021/03/01 01:30:15;;;;;;;20.10;9.95;;;;;;;1.21;60.55;97833.03;5074717;28;20040;-78
2021/03/01 01:32:41;;;;;;;18.67;9.82;;;;;;;1.18;60.50;97835.88;5074866;28;20480;-78
2021/03/01 01:35:10;;;;;;;16.75;9.77;;;;;;;1.14;60.70;97842.25;5074550;28;20044;-79
2021/03/01 01:37:37;;;;;;;16.90;10.25;;;;;;;1.11;60.43;97830.38;5074443;28;20060;-78
2021/03/01 01:40:06;;;;;;;17.23;9.13;;;;;;;1.06;60.73;97826.53;5074737;28;20047;-78
2021/03/01 01:42:33;;;;;;;16.52;9.65;;;;;;;1.03;60.70;97822.44;5074492;28;20041;-79
2021/03/01 01:45:00;;;;;;;18.85;9.35;;;;;;;1.00;60.87;97823.50;5074206;28;20492;-79
2021/03/01 01:47:26;;;;;;;17.13;9.65;;;;;;;0.94;60.69;97821.41;5072505;28;20052;-78
2021/03/01 01:49:52;;;;;;;16.73;9.43;;;;;;;0.89;60.83;97817.56;5071567;28;20480;-79
2021/03/01 01:52:19;;;;;;;22.00;9.77;;;;;;;0.86;60.98;97815.22;5073661;28;20037;-79
2021/03/01 01:54:45;;;;;;;19.88;10.57;;;;;;;0.83;60.99;97824.03;5073992;28;20044;-79
2021/03/01 01:57:12;;;;;;;18.33;10.35;;;;;;;0.77;61.05;97825.34;5074094;28;20396;-79
2021/03/01 01:59:39;;;;;;;17.15;9.35;;;;;;;0.74;61.14;97825.59;5073998;28;20040;-79
2021/03/01 02:02:07;;;;;;;19.52;10.82;;;;;;;0.71;61.11;97825.81;5073948;28;20119;-78
2021/03/01 02:04:39;;;;;;;21.42;11.05;;;;;;;0.68;61.24;97820.91;5073949;28;20049;-78
2021/03/01 02:07:30;;;;;;;17.98;10.63;;;;;;;0.66;62.17;97821.97;5073888;28;20507;-79
2021/03/01 02:10:10;;;;;;;19.60;10.55;;;;;;;0.63;61.59;97819.63;5064085;28;20484;-79
2021/03/01 02:13:08;;;;;;;20.00;9.88;;;;;;;0.60;62.27;97821.50;5073437;28;20468;-78
2021/03/01 02:15:51;;;;;;;17.85;9.60;;;;;;;0.58;62.12;97812.25;5073743;28;20040;-79
2021/03/01 02:18:17;;;;;;;20.35;10.38;;;;;;;0.56;61.53;97804.63;5074035;28;20044;-78
2021/03/01 02:20:44;;;;;;;16.52;8.90;;;;;;;0.56;61.54;97803.81;5073498;28;20638;-79
2021/03/01 02:23:12;;;;;;;18.52;9.98;;;;;;;0.54;61.56;97795.38;5072512;28;20052;-78
2021/03/01 02:26:06;;;;;;;18.83;9.38;;;;;;;0.53;62.91;97812.63;5072127;28;20381;-79
2021/03/01 02:28:37;;;;;;;14.18;8.45;;;;;;;0.50;61.90;97806.88;5072739;28;20397;-79
2021/03/01 02:31:06;;;;;;;19.80;9.63;;;;;;;0.49;61.92;97802.66;5073287;28;20048;-78
2021/03/01 02:33:37;;;;;;;18.77;9.45;;;;;;;0.48;62.16;97804.41;5073893;28;20389;-79
2021/03/01 02:36:17;;;;;;;18.05;10.38;;;;;;;0.47;62.86;97800.19;5073386;28;20051;-79
2021/03/01 02:38:45;;;;;;;19.58;10.00;;;;;;;0.45;61.91;97796.91;5074318;28;20500;-78
2021/03/01 02:41:11;;;;;;;20.23;10.05;;;;;;;0.42;61.85;97792.00;5073491;28;20040;-78
2021/03/01 02:43:39;;;;;;;17.73;10.30;;;;;;;0.40;62.12;97794.69;5073231;28;20059;-79
2021/03/01 02:46:07;;;;;;;18.60;10.52;;;;;;;0.39;62.38;97800.78;5071312;28;20059;-79
2021/03/01 02:48:36;;;;;;;17.98;11.15;;;;;;;0.38;62.22;97794.00;5073228;28;20028;-79
2021/03/01 02:51:04;;;;;;;20.20;9.48;;;;;;;0.38;62.47;97796.59;5073081;28;20052;-78
2021/03/01 02:53:31;;;;;;;20.73;9.68;;;;;;;0.38;62.29;97795.75;5072402;28;20033;-79
2021/03/01 02:55:59;;;;;;;20.48;10.85;;;;;;;0.35;62.35;97796.81;5072526;28;20483;-79
2021/03/01 02:58:28;;;;;;;18.42;10.13;;;;;;;0.32;62.28;97793.66;5071518;28;20036;-78
2021/03/01 03:00:56;;;;;;;17.85;10.27;;;;;;;0.29;62.42;97796.47;5073252;28;20040;-78
2021/03/01 03:03:25;;;;;;;19.52;9.98;;;;;;;0.28;62.57;97800.81;5072868;28;20052;-79
2021/03/01 03:05:52;;;;;;;17.35;10.15;;;;;;;0.25;62.54;97798.47;5073270;28;20036;-79
2021/03/01 03:08:19;;;;;;;21.20;10.98;;;;;;;0.22;62.51;97790.16;5071836;28;20052;-78
2021/03/01 03:10:48;;;;;;;15.60;9.45;;;;;;;0.23;62.81;97802.09;5072031;28;20048;-79
2021/03/01 03:13:15;;;;;;;23.38;11.15;;;;;;;0.22;62.87;97796.13;5073070;28;20419;-78
2021/03/01 03:15:42;;;;;;;22.35;10.32;;;;;;;0.23;63.09;97792.59;5072324;28;20040;-79
2021/03/01 03:18:11;;;;;;;19.00;10.65;;;;;;;0.24;62.94;97794.25;5073019;28;20389;-78
2021/03/01 03:20:38;;;;;;;20.00;9.88;;;;;;;0.26;63.22;97789.78;5071404;28;20055;-78
2021/03/01 03:23:06;;;;;;;20.90;11.02;;;;;;;0.26;63.34;97787.22;5072753;28;20053;-78
2021/03/01 03:25:32;;;;;;;17.95;9.50;;;;;;;0.28;63.23;97800.00;5072775;28;20045;-79
2021/03/01 03:27:59;;;;;;;20.13;10.75;;;;;;;0.28;63.31;97790.50;5073015;28;20395;-78
2021/03/01 03:30:25;;;;;;;19.70;9.90;;;;;;;0.29;63.34;97792.13;5072419;28;20048;-79
2021/03/01 03:32:52;;;;;;;18.60;10.48;;;;;;;0.30;63.55;97790.38;5072597;28;20033;-79
2021/03/01 03:35:20;;;;;;;20.60;11.10;;;;;;;0.31;63.36;97790.25;5072896;28;20103;-79
2021/03/01 03:38:13;;;;;;;17.42;9.32;;;;;;;0.30;64.26;97792.97;5072617;28;20044;-79
2021/03/01 03:40:44;;;;;;;17.38;10.70;;;;;;;0.28;63.58;97785.34;5072831;28;20039;-78
2021/03/01 03:43:13;;;;;;;20.67;10.15;;;;;;;0.26;63.40;97799.31;5072812;28;20064;-78
2021/03/01 03:45:40;;;;;;;24.42;12.70;;;;;;;0.22;63.35;97790.97;5060909;28;20047;-79
2021/03/01 03:48:08;;;;;;;20.98;11.82;;;;;;;0.12;63.44;97785.69;5073072;28;20044;-78
2021/03/01 03:50:35;;;;;;;22.42;11.07;;;;;;;0.07;63.66;97794.75;5072485;28;20493;-79
2021/03/01 03:53:09;;;;;;;20.77;10.55;;;;;;;0.04;63.93;97792.38;5072703;28;20036;-79
2021/03/01 03:55:36;;;;;;;20.80;10.98;;;;;;;0.01;63.64;97787.47;5072502;28;20040;-79
2021/03/01 03:58:07;;;;;;;22.48;11.52;;;;;;;-0.02;63.83;97789.34;5073482;28;20035;-78
2021/03/01 04:00:36;;;;;;;19.10;11.10;;;;;;;-0.05;63.77;97786.19;5072878;28;20025;-78
2021/03/01 04:03:12;;;;;;;20.27;10.68;;;;;;;-0.12;63.93;97792.75;5072587;28;20049;-79
2021/03/01 04:05:43;;;;;;;29.10;13.88;;;;;;;-0.18;63.94;97795.81;5070813;28;20048;-79
2021/03/01 04:08:13;;;;;;;52.67;23.48;;;;;;;-0.19;63.98;97787.22;5072112;28;20056;-79
2021/03/01 04:10:44;;;;;;;46.40;22.10;;;;;;;-0.19;64.27;97781.25;5074404;28;20049;-79
2021/03/01 04:13:13;;;;;;;46.60;20.58;;;;;;;-0.21;64.32;97784.78;5076540;28;20488;-79
2021/03/01 04:15:44;;;;;;;39.95;19.60;;;;;;;-0.22;64.21;97788.28;5075776;28;20055;-79
2021/03/01 04:18:14;;;;;;;34.20;16.48;;;;;;;-0.23;63.99;97785.84;5075742;28;20062;-79
2021/03/01 04:20:41;;;;;;;46.45;22.42;;;;;;;-0.24;64.05;97789.34;5075609;28;20032;-79
2021/03/01 04:23:08;;;;;;;54.38;26.63;;;;;;;-0.27;64.07;97790.41;5074504;28;20048;-79
2021/03/01 04:25:36;;;;;;;65.70;29.42;;;;;;;-0.26;64.15;97786.88;5075816;28;20032;-78
2021/03/01 04:28:04;;;;;;;51.60;24.90;;;;;;;-0.26;64.20;97788.66;5075511;28;20396;-78
2021/03/01 04:30:30;;;;;;;43.30;20.58;;;;;;;-0.29;64.23;97781.97;5063583;28;20044;-78
2021/03/01 04:32:57;;;;;;;35.75;16.45;;;;;;;-0.30;64.20;97788.06;5075358;28;20038;-78
2021/03/01 04:35:24;;;;;;;33.28;14.63;;;;;;;-0.32;64.26;97786.53;5076098;28;20404;-79
2021/03/01 04:37:50;;;;;;;32.95;16.38;;;;;;;-0.34;64.10;97776.34;5074372;28;20064;-79
2021/03/01 04:40:17;;;;;;;35.25;16.77;;;;;;;-0.34;64.10;97780.66;5075721;28;20036;-78
2021/03/01 04:42:47;;;;;;;35.22;17.75;;;;;;;-0.36;64.30;97785.13;5075164;28;20403;-79
2021/03/01 04:45:16;;;;;;;37.08;16.65;;;;;;;-0.37;64.38;97779.16;5075242;28;20407;-79
2021/03/01 04:47:44;;;;;;;31.90;17.33;;;;;;;-0.35;64.50;97781.63;5076170;28;20043;-78
2021/03/01 04:50:13;;;;;;;39.30;18.60;;;;;;;-0.38;64.43;97780.06;5073743;28;20040;-79
2021/03/01 04:52:40;;;;;;;30.23;15.40;;;;;;;-0.42;64.28;97778.66;5075527;28;20060;-78
2021/03/01 04:55:07;;;;;;;28.45;15.13;;;;;;;-0.45;64.32;97784.06;5064942;28;20405;-78
2021/03/01 04:57:34;;;;;;;26.92;13.43;;;;;;;-0.50;64.29;97774.09;5074888;28;20028;-79
2021/03/01 05:00:02;;;;;;;28.13;13.80;;;;;;;-0.51;64.21;97771.63;5074817;28;20044;-79
2021/03/01 05:02:30;;;;;;;30.27;15.15;;;;;;;-0.54;64.39;97782.19;5075119;28;20384;-78
2021/03/01 05:04:57;;;;;;;28.52;14.98;;;;;;;-0.54;64.28;97784.78;5073826;28;20037;-79
2021/03/01 05:07:24;;;;;;;27.83;14.73;;;;;;;-0.57;64.42;97778.06;5072269;28;20056;-79
2021/03/01 05:09:51;;;;;;;27.98;14.85;;;;;;;-0.59;64.36;97784.28;5057289;28;20056;-79
2021/03/01 05:12:17;;;;;;;26.88;14.70;;;;;;;-0.62;64.29;97780.19;5074851;28;20484;-78
2021/03/01 05:14:43;;;;;;;25.50;13.57;;;;;;;-0.66;64.50;97781.34;5074145;28;20064;-79
2021/03/01 05:17:10;;;;;;;24.65;12.48;;;;;;;-0.69;64.39;97789.31;5075120;28;20040;-78
2021/03/01 05:19:36;;;;;;;28.55;14.00;;;;;;;-0.70;64.54;97779.94;5074084;28;20041;-79
2021/03/01 05:22:02;;;;;;;27.10;14.65;;;;;;;-0.71;64.52;97792.00;5074082;28;20396;-79
2021/03/01 05:24:29;;;;;;;33.70;16.70;;;;;;;-0.72;64.63;97785.19;5073319;28;20053;-79
2021/03/01 05:26:55;;;;;;;26.67;14.23;;;;;;;-0.74;64.78;97786.22;5074923;28;20036;-79
2021/03/01 05:29:21;;;;;;;27.50;13.90;;;;;;;-0.78;64.55;97783.06;5074853;28;20384;-78
2021/03/01 05:31:47;;;;;;;24.02;13.15;;;;;;;-0.78;64.82;97785.63;5075243;28;20037;-78
2021/03/01 05:34:15;;;;;;;30.00;13.77;;;;;;;-0.78;64.73;97782.25;5075092;28;20036;-79
2021/03/01 05:36:42;;;;;;;27.20;15.25;;;;;;;-0.78;64.60;97788.22;5074292;28;20044;-79
2021/03/01 05:39:08;;;;;;;26.90;13.80;;;;;;;-0.80;64.69;97787.50;5074520;28;20484;-79
2021/03/01 05:41:35;;;;;;;29.38;14.27;;;;;;;-0.78;64.71;97798.50;5074705;28;20040;-79
2021/03/01 05:44:02;;;;;;;22.92;12.55;;;;;;;-0.82;64.69;97794.53;5072795;28;20051;-79
2021/03/01 05:46:29;;;;;;;25.05;12.70;;;;;;;-0.83;64.79;97805.78;5073720;28;20041;-78
2021/03/01 05:48:56;;;;;;;23.13;11.68;;;;;;;-0.86;64.98;97806.81;5073942;28;20093;-78
2021/03/01 05:51:25;;;;;;;24.98;13.00;;;;;;;-0.88;65.04;97800.97;5074144;28;20457;-78
2021/03/01 05:53:55;;;;;;;25.77;12.63;;;;;;;-0.90;65.01;97802.81;5074235;28;20032;-79
2021/03/01 05:56:22;;;;;;;25.63;13.13;;;;;;;-0.91;65.02;97805.50;5074113;28;20035;-78
2021/03/01 05:58:50;;;;;;;30.60;12.15;;;;;;;-0.91;65.39;97796.03;5074660;28;20416;-78
2021/03/01 06:01:17;;;;;;;22.15;11.55;;;;;;;-0.92;65.23;97806.47;5074111;28;20043;-78
2021/03/01 06:03:43;;;;;;;22.60;11.63;;;;;;;-0.92;65.33;97802.13;5074129;28;20049;-78
2021/03/01 06:06:12;;;;;;;22.13;11.30;;;;;;;-0.90;65.56;97804.59;5074320;28;20037;-78
2021/03/01 06:08:39;;;;;;;25.73;11.45;;;;;;;-0.90;65.52;97802.81;5073035;28;20052;-78
2021/03/01 06:11:07;;;;;;;23.92;12.38;;;;;;;-0.86;65.84;97803.41;5073921;28;20043;-78
2021/03/01 06:13:34;;;;;;;25.77;12.52;;;;;;;-0.86;65.44;97793.94;5073772;28;20041;-78
2021/03/01 06:16:02;;;;;;;20.30;11.25;;;;;;;-0.81;65.67;97809.06;5074262;28;20041;-78
2021/03/01 06:18:29;;;;;;;25.95;12.60;;;;;;;-0.78;65.74;97808.00;5073801;28;20435;-78
2021/03/01 06:21:28;;;;;;;25.05;13.80;;;;;;;-0.72;67.07;97820.44;5074092;28;20040;-78
2021/03/01 06:23:55;;;;;;;27.70;14.25;;;;;;;-0.72;65.72;97813.50;5050914;28;20373;-78
2021/03/01 06:26:33;;;;;;;27.92;14.48;;;;;;;-0.71;65.92;97810.03;5073812;28;20480;-78
2021/03/01 06:29:02;;;;;;;28.40;14.35;;;;;;;-0.71;65.75;97804.88;5073670;28;20036;-78
2021/03/01 06:31:45;;;;;;;25.20;13.45;;;;;;;-0.72;65.65;97808.38;5073876;28;20051;-78
2021/03/01 06:34:35;;;;;;;26.77;13.10;;;;;;;-0.74;65.51;97809.41;5073688;28;20029;-78
2021/03/01 06:37:17;;;;;;;23.67;12.75;;;;;;;-0.76;65.49;97817.25;5073820;28;20037;-78
2021/03/01 06:39:48;;;;;;;31.55;15.93;;;;;;;-0.72;65.31;97816.09;5061275;28;20047;-78
2021/03/01 06:42:23;;;;;;;43.08;20.55;;;;;;;-0.15;65.85;97818.75;5072874;28;20045;-78
2021/03/01 06:44:59;;;;;;;42.05;20.50;;;;;;;0.76;65.06;97821.13;5061068;28;20028;-78
2021/03/01 06:47:43;;;;;;;42.35;19.55;;;;;;;1.72;62.96;97814.19;5073412;28;20033;-78
2021/03/01 06:50:30;;;;;;;35.03;17.27;;;;;;;2.58;62.23;97812.06;5073176;28;20574;-78
2021/03/01 06:53:12;;;;;;;34.40;16.27;;;;;;;3.42;60.38;97816.72;5072698;28;20037;-78
2021/03/01 06:55:53;;;;;;;33.67;16.55;;;;;;;4.01;62.07;97816.53;5073287;28;20036;-78
2021/03/01 06:58:19;;;;;;;25.85;15.30;;;;;;;4.59;60.74;97820.66;5073720;28;20032;-78
2021/03/01 07:00:56;;;;;;;27.95;15.15;;;;;;;5.07;60.21;97812.50;5073054;28;20036;-78
2021/03/01 07:03:23;;;;;;;30.27;15.32;;;;;;;5.50;59.04;97807.47;5073588;28;20028;-78
2021/03/01 07:05:52;;;;;;;26.25;14.43;;;;;;;5.85;57.96;97800.53;5072994;28;20041;-79
2021/03/01 07:08:38;;;;;;;24.15;14.45;;;;;;;6.22;53.35;97760.38;5072940;28;20052;-78
2021/03/01 07:11:20;;;;;;;26.05;14.82;;;;;;;6.56;56.25;97791.59;5073279;28;20499;-79
2021/03/01 07:13:47;;;;;;;26.23;15.30;;;;;;;6.95;55.89;97783.19;5073069;28;20491;-78
2021/03/01 07:16:14;;;;;;;25.35;14.75;;;;;;;7.27;55.35;97792.81;5073577;28;20472;-78
2021/03/01 07:18:41;;;;;;;25.50;15.18;;;;;;;7.57;54.45;97767.00;5073026;28;20044;-78
2021/03/01 07:21:13;;;;;;;26.27;15.20;;;;;;;7.85;51.80;97751.78;5071780;28;20040;-78
2021/03/01 07:23:44;;;;;;;27.40;15.45;;;;;;;8.11;50.90;97745.47;5072679;28;20067;-79
2021/03/01 07:26:12;;;;;;;25.67;14.95;;;;;;;8.28;51.99;97752.25;5073012;28;20043;-79
2021/03/01 07:29:12;;;;;;;27.05;15.23;;;;;;;8.47;47.15;97708.41;5073072;28;20407;-78
2021/03/01 07:31:48;;;;;;;25.83;15.50;;;;;;;8.50;48.25;97726.34;5064994;28;20079;-79
2021/03/01 07:34:16;;;;;;;23.67;16.13;;;;;;;8.56;50.11;97746.56;5073138;28;20032;-78
2021/03/01 07:36:42;;;;;;;30.83;16.60;;;;;;;8.50;49.73;97750.72;5072851;28;20385;-78
2021/03/01 07:39:11;;;;;;;27.00;16.83;;;;;;;8.46;48.86;97738.13;5073015;28;20063;-79
2021/03/01 07:41:38;;;;;;;25.30;16.27;;;;;;;8.49;49.24;97748.25;5073016;28;20036;-78
2021/03/01 07:44:06;;;;;;;25.52;15.93;;;;;;;8.61;49.02;97752.13;5074104;28;20048;-78
2021/03/01 07:46:39;;;;;;;27.40;16.20;;;;;;;8.68;46.68;97747.81;5076634;28;20489;-79
2021/03/01 07:49:11;;;;;;;26.88;14.63;;;;;;;8.65;46.50;97740.31;5077530;28;20035;-78
2021/03/01 07:51:46;;;;;;;29.95;15.95;;;;;;;8.65;46.12;97737.69;5076800;28;20036;-78
2021/03/01 07:54:51;;;;;;;27.45;16.48;;;;;;;8.56;45.47;97728.25;5076780;28;20043;-78
2021/03/01 07:57:18;;;;;;;;;;;;;;;8.57;44.87;97716.00;5076947;28;20041;-78
2021/03/01 07:59:46;;;;;;;27.83;16.40;;;;;;;8.40;47.25;97747.47;5076650;28;19913;-78
2021/03/01 08:02:14;;;;;;;25.38;15.75;;;;;;;8.22;47.32;97752.13;5076595;28;20039;-78
2021/03/01 08:04:45;;;;;;;24.73;14.85;;;;;;;8.06;47.21;97759.06;5076479;28;20472;-78
2021/03/01 08:07:40;;;;;;;25.35;15.25;;;;;;;8.03;47.05;97758.56;5075680;28;20415;-78
2021/03/01 08:10:36;;;;;;;27.90;15.60;;;;;;;8.08;46.04;97736.19;5075849;28;20049;-78
2021/03/01 08:13:09;;;;;;;23.83;14.57;;;;;;;8.11;47.12;97745.47;5067097;28;20063;-78
2021/03/01 08:15:49;;;;;;;23.50;14.48;;;;;;;8.05;46.79;97746.16;5074575;28;20071;-78
2021/03/01 08:18:21;;;;;;;22.55;14.43;;;;;;;7.95;46.60;97750.75;5060106;28;20067;-78
2021/03/01 08:21:01;;;;;;;27.58;16.02;;;;;;;7.89;46.41;97747.00;5073750;28;20059;-78
2021/03/01 08:23:36;;;;;;;23.77;13.55;;;;;;;8.06;47.00;97753.00;5076086;28;20401;-78
2021/03/01 08:26:10;;;;;;;24.42;14.77;;;;;;;8.25;47.29;97747.38;5075451;28;20044;-78
2021/03/01 08:28:45;;;;;;;22.05;13.95;;;;;;;8.44;47.18;97748.78;5076097;28;20056;-78
2021/03/01 08:31:32;;;;;;;24.65;14.48;;;;;;;8.54;45.75;97743.31;5075652;28;20044;-78
2021/03/01 08:34:38;;;;;;;23.10;14.68;;;;;;;8.77;46.04;97734.69;5075629;28;20052;-78
2021/03/01 08:37:42;;;;;;;24.90;14.80;;;;;;;9.10;45.80;97740.47;5075369;28;20396;-78
2021/03/01 08:40:30;;;;;;;22.85;13.85;;;;;;;9.35;45.26;97738.47;5065764;28;20048;-78
2021/03/01 08:43:16;;;;;;;22.30;15.00;;;;;;;9.55;45.17;97742.19;5075357;28;20036;-78
2021/03/01 08:46:01;;;;;;;19.95;12.18;;;;;;;9.65;45.16;97744.53;5075273;28;20044;-77
2021/03/01 08:49:05;;;;;;;18.95;11.93;;;;;;;9.79;43.98;97752.59;5073429;28;20047;-77
2021/03/01 08:52:01;;;;;;;21.42;12.48;;;;;;;10.00;44.37;97767.59;5068311;28;20051;-78
2021/03/01 08:54:42;;;;;;;20.25;11.38;;;;;;;10.15;44.50;97766.56;5061009;28;20380;-77
2021/03/01 08:58:04;;;;;;;16.48;10.90;;;;;;;10.15;43.01;97777.06;5074911;28;20044;-78
2021/03/01 09:01:04;;;;;;;19.52;11.60;;;;;;;10.00;43.48;97776.25;5065398;28;20045;-78
2021/03/01 09:03:45;;;;;;;15.02;10.40;;;;;;;9.85;43.39;97775.44;5066943;28;20472;-78
2021/03/01 09:06:49;;;;;;;20.02;11.90;;;;;;;9.76;43.15;97766.84;5075810;28;20041;-77
2021/03/01 09:09:57;;;;;;;18.15;11.18;;;;;;;9.77;43.41;97770.31;5074843;28;20480;-77
2021/03/01 09:12:28;;;;;;;17.85;11.73;;;;;;;9.71;44.41;97777.88;5061912;28;20480;-77
2021/03/01 09:14:54;;;;;;;21.10;10.85;;;;;;;9.68;44.34;97775.63;5075169;28;20052;-78
2021/03/01 09:17:22;;;;;;;18.00;11.80;;;;;;;9.62;44.37;97770.28;5075261;28;20391;-77
2021/03/01 09:19:48;;;;;;;17.08;11.32;;;;;;;9.55;44.41;97765.78;5075078;28;20048;-78
2021/03/01 09:22:15;;;;;;;17.20;11.35;;;;;;;9.52;44.55;97763.50;5074870;28;20476;-77
2021/03/01 09:24:42;;;;;;;18.42;11.68;;;;;;;9.58;44.49;97775.06;5074897;28;20040;-77
2021/03/01 09:27:08;;;;;;;15.50;10.80;;;;;;;9.57;44.49;97781.28;5074667;28;20041;-77
2021/03/01 09:29:34;;;;;;;19.20;12.07;;;;;;;9.32;44.13;97778.91;5075024;28;20032;-77
2021/03/01 09:32:01;;;;;;;18.17;11.38;;;;;;;9.10;44.52;97775.31;5074958;28;20041;-78
2021/03/01 09:34:28;;;;;;;19.63;11.80;;;;;;;9.17;45.13;97775.41;5074254;28;20048;-77
2021/03/01 09:36:55;;;;;;;15.65;10.93;;;;;;;9.30;44.85;97786.13;5075040;28;20051;-78
2021/03/01 09:39:25;;;;;;;16.75;10.60;;;;;;;9.39;45.04;97783.44;5074243;28;20051;-77
2021/03/01 09:41:56;;;;;;;17.25;10.75;;;;;;;9.52;44.86;97781.00;5074830;28;20048;-77
2021/03/01 09:44:29;;;;;;;19.85;12.05;;;;;;;9.57;44.26;97772.63;5074866;28;20065;-77
2021/03/01 09:46:57;;;;;;;15.80;11.20;;;;;;;9.59;44.50;97778.50;5074502;28;20037;-77
2021/03/01 09:49:26;;;;;;;16.92;11.25;;;;;;;9.66;44.52;97779.38;5074748;28;20397;-77
2021/03/01 09:51:52;;;;;;;16.65;10.93;;;;;;;9.77;44.38;97776.34;5073667;28;20055;-77
2021/03/01 09:54:22;;;;;;;18.45;11.32;;;;;;;9.75;43.82;97773.09;5074150;28;20039;-77
2021/03/01 09:56:52;;;;;;;16.65;9.90;;;;;;;9.76;44.30;97777.31;5074571;28;20388;-77
2021/03/01 09:59:39;;;;;;;16.10;10.48;;;;;;;9.78;42.58;97761.44;5074227;28;20040;-77
2021/03/01 10:02:07;;;;;;;15.45;10.38;;;;;;;9.74;44.03;97768.84;5073488;28;20044;-77
2021/03/01 10:04:33;;;;;;;14.68;9.93;;;;;;;9.57;43.65;97768.19;5074369;28;20025;-77
2021/03/01 10:07:17;;;;;;;16.88;10.93;;;;;;;9.43;43.50;97764.56;5073632;28;20043;-77
2021/03/01 10:09:44;;;;;;;13.20;9.93;;;;;;;9.42;43.91;97765.53;5074631;28;20045;-77
2021/03/01 10:12:11;;;;;;;17.90;9.63;;;;;;;9.50;43.98;97764.66;5073678;28;20056;-77
2021/03/01 10:14:38;;;;;;;16.17;10.35;;;;;;;9.55;43.82;97757.06;5073899;28;20052;-77
2021/03/01 10:17:14;;;;;;;15.95;10.55;;;;;;;9.50;42.96;97759.44;5073906;28;20040;-77
2021/03/01 10:19:41;;;;;;;17.40;10.43;;;;;;;9.47;43.48;97758.00;5073774;28;20040;-77
2021/03/01 10:22:07;;;;;;;18.75;9.80;;;;;;;9.55;43.66;97757.91;5073979;28;20056;-77
2021/03/01 10:24:48;;;;;;;16.13;10.75;;;;;;;9.66;42.47;97758.44;5074033;28;20040;-77
2021/03/01 10:27:16;;;;;;;14.93;10.13;;;;;;;9.68;43.50;97759.91;5073155;28;20045;-77
2021/03/01 10:29:49;;;;;;;16.75;9.95;;;;;;;9.75;43.30;97754.75;5073844;28;20036;-77
2021/03/01 10:32:21;;;;;;;15.27;9.57;;;;;;;9.74;42.06;97753.94;5073776;28;20043;-77
2021/03/01 10:34:48;;;;;;;11.82;8.38;;;;;;;9.78;43.01;97757.00;5073618;28;20055;-77
2021/03/01 10:37:18;;;;;;;16.50;8.75;;;;;;;9.94;42.90;97756.81;5074230;28;20389;-77
2021/03/01 10:39:49;;;;;;;12.65;8.57;;;;;;;10.15;42.98;97747.41;5072887;28;20051;-77
2021/03/01 10:42:20;;;;;;;15.30;9.07;;;;;;;10.39;42.30;97748.94;5073792;28;20416;-77
2021/03/01 10:44:51;;;;;;;16.10;8.90;;;;;;;10.56;42.23;97750.34;5073770;28;20044;-77
2021/03/01 10:47:28;;;;;;;14.02;9.45;;;;;;;10.57;42.16;97743.28;5073554;28;20460;-77
2021/03/01 10:49:57;;;;;;;14.70;9.05;;;;;;;10.68;41.88;97747.25;5073403;28;20033;-77
2021/03/01 10:52:25;;;;;;;13.70;8.27;;;;;;;10.81;41.79;97744.72;5074172;28;20052;-77
2021/03/01 10:54:56;;;;;;;12.13;8.18;;;;;;;10.95;41.48;97738.63;5073887;28;20040;-77
2021/03/01 10:57:23;;;;;;;10.43;7.20;;;;;;;10.88;41.05;97744.81;5073206;28;20043;-77
2021/03/01 10:59:51;;;;;;;11.48;7.63;;;;;;;11.00;41.01;97748.53;5072872;28;20059;-77
2021/03/01 11:02:18;;;;;;;10.45;6.88;;;;;;;11.17;40.77;97741.22;5073481;28;20035;-77
2021/03/01 11:04:45;;;;;;;10.35;6.82;;;;;;;11.30;40.07;97746.59;5073587;28;20047;-77
2021/03/01 11:07:11;;;;;;;13.90;7.38;;;;;;;11.48;39.97;97748.72;5060615;28;20044;-77
2021/03/01 11:09:38;;;;;;;11.43;7.10;;;;;;;11.65;39.79;97743.19;5073248;28;20075;-77
2021/03/01 11:12:05;;;;;;;7.97;6.15;;;;;;;11.87;39.29;97739.50;5073177;28;20051;-77
2021/03/01 11:14:33;;;;;;;10.23;7.25;;;;;;;11.97;38.61;97742.59;5072753;28;20045;-77
2021/03/01 11:16:59;;;;;;;9.30;6.35;;;;;;;12.05;38.34;97733.72;5072936;28;20032;-77
2021/03/01 11:19:25;;;;;;;7.47;5.43;;;;;;;12.14;37.45;97737.84;5072891;28;20035;-77
2021/03/01 11:21:52;;;;;;;5.93;4.88;;;;;;;12.22;36.53;97743.91;5073183;28;20047;-77
2021/03/01 11:24:21;;;;;;;6.80;5.00;;;;;;;12.10;35.54;97739.22;5073019;28;20033;-77
2021/03/01 11:26:49;;;;;;;6.97;5.63;;;;;;;12.08;35.42;97736.00;5073213;28;20032;-77
2021/03/01 11:29:16;;;;;;;8.63;5.25;;;;;;;12.00;34.32;97730.09;5073241;28;20040;-77
2021/03/01 11:31:42;;;;;;;7.07;4.72;;;;;;;12.06;33.99;97721.41;5072437;28;20037;-77
2021/03/01 11:34:09;;;;;;;7.40;4.97;;;;;;;12.18;33.67;97731.19;5073499;28;20491;-77
2021/03/01 11:36:36;;;;;;;7.10;4.70;;;;;;;12.28;32.91;97724.72;5072845;28;20081;-77
2021/03/01 11:39:07;;;;;;;6.35;4.22;;;;;;;12.55;30.53;97715.09;5073482;28;20060;-76
2021/03/01 11:41:34;;;;;;;6.53;4.63;;;;;;;12.77;32.25;97710.50;5072545;28;20048;-77
2021/03/01 11:44:00;;;;;;;5.47;4.32;;;;;;;12.96;31.87;97707.06;5072720;28;20045;-77
2021/03/01 11:46:26;;;;;;;7.10;4.32;;;;;;;13.00;30.79;97710.91;5073461;28;20037;-77